createdAt,value
2019-06-01T00:01:34.445Z,73.76
2019-06-01T00:04:00.616Z,73.63
2019-06-01T00:06:26.811Z,73.74
2019-06-01T00:08:52.958Z,74.45
2019-06-01T00:11:19.050Z,75.09
2019-06-01T00:13:45.613Z,75.23
2019-06-01T00:16:11.797Z,74.87
2019-06-01T00:18:37.906Z,76.71
2019-06-01T00:21:04.137Z,75.90
2019-06-01T00:23:32.163Z,75.51
2019-06-01T00:25:58.468Z,76.02
2019-06-01T00:28:24.561Z,75.70
2019-06-01T00:30:51.981Z,76.01
2019-06-01T00:33:18.190Z,76.51
2019-06-01T00:35:45.325Z,76.76
2019-06-01T00:38:12.760Z,77.76
2019-06-01T00:40:40.031Z,77.60
2019-06-01T00:43:06.371Z,78.20
2019-06-01T00:45:33.288Z,78.27
2019-06-01T00:47:59.414Z,78.41
2019-06-01T00:50:25.732Z,78.76
2019-06-01T00:52:51.851Z,78.10
2019-06-01T00:55:18.187Z,78.35
2019-06-01T00:57:45.596Z,78.68
2019-06-01T01:00:12.319Z,78.23
2019-06-01T01:02:38.663Z,77.93
2019-06-01T01:05:09.812Z,77.64
2019-06-01T01:07:38.200Z,77.34
2019-06-01T01:10:05.079Z,76.77
2019-06-01T01:12:33.359Z,76.44
2019-06-01T01:14:59.543Z,77.46
2019-06-01T01:17:25.634Z,77.13
2019-06-01T01:19:51.999Z,77.04
2019-06-01T01:22:18.151Z,77.80
2019-06-01T01:24:44.248Z,78.20
2019-06-01T01:27:11.467Z,78.42
2019-06-01T01:29:38.666Z,78.54
2019-06-01T01:32:04.776Z,77.89
2019-06-01T01:34:30.881Z,77.94
2019-06-01T01:36:58.111Z,77.69
2019-06-01T01:39:24.282Z,77.50
2019-06-01T01:41:50.395Z,77.31
2019-06-01T01:44:16.504Z,77.13
2019-06-01T01:46:42.603Z,76.99
2019-06-01T01:49:08.681Z,76.78
2019-06-01T01:51:34.756Z,76.58
2019-06-01T01:54:00.856Z,77.15
2019-06-01T01:56:26.922Z,77.57
2019-06-01T01:58:54.314Z,77.77
2019-06-01T02:01:22.797Z,77.38
2019-06-01T02:03:48.382Z,77.08
2019-06-01T02:06:14.605Z,75.93
2019-06-01T02:08:40.803Z,75.18
2019-06-01T02:11:07.004Z,76.74
2019-06-01T02:13:33.243Z,77.90
2019-06-01T02:16:00.561Z,77.17
2019-06-01T02:18:26.733Z,75.83
2019-06-01T02:20:54.259Z,75.74
2019-06-01T02:23:20.521Z,75.71
2019-06-01T02:25:46.605Z,76.52
2019-06-01T02:28:12.807Z,77.02
2019-06-01T02:30:39.011Z,76.79
2019-06-01T02:33:05.170Z,77.66
2019-06-01T02:35:31.448Z,77.94
2019-06-01T02:37:58.580Z,77.94
2019-06-01T02:40:25.399Z,78.43
2019-06-01T02:42:51.601Z,78.27
2019-06-01T02:45:18.878Z,79.67
2019-06-01T02:47:45.295Z,80.04
2019-06-01T02:50:11.876Z,80.09
2019-06-01T02:52:38.162Z,79.99
2019-06-01T02:55:13.853Z,79.33
2019-06-01T02:57:40.044Z,79.34
2019-06-01T03:00:07.629Z,80.29
2019-06-01T03:02:34.932Z,80.22
2019-06-01T03:05:01.348Z,80.05
2019-06-01T03:07:28.965Z,78.50
2019-06-01T03:09:56.443Z,78.89
2019-06-01T03:12:25.845Z,78.43
2019-06-01T03:14:54.919Z,78.04
2019-06-01T03:17:23.522Z,77.80
2019-06-01T03:19:52.806Z,78.11
2019-06-01T03:22:21.799Z,77.99
2019-06-01T03:24:51.403Z,78.07
2019-06-01T03:27:20.917Z,78.58
2019-06-01T03:29:53.918Z,79.23
2019-06-01T03:32:35.224Z,79.56
2019-06-01T03:34:48.108Z,79.21
2019-06-01T03:37:14.349Z,80.11
2019-06-01T03:39:40.540Z,80.51
2019-06-01T03:42:08.049Z,79.69
2019-06-01T03:44:34.347Z,79.80
2019-06-01T03:47:01.524Z,80.28
2019-06-01T03:49:27.769Z,80.12
2019-06-01T03:51:53.863Z,80.28
2019-06-01T03:54:19.954Z,80.70
2019-06-01T03:56:46.028Z,80.45
2019-06-01T03:59:12.422Z,80.25
2019-06-01T04:01:38.628Z,79.66
2019-06-01T04:04:05.051Z,79.76
2019-06-01T04:06:31.400Z,79.75
2019-06-01T04:08:57.531Z,80.04
2019-06-01T04:11:23.603Z,80.01
2019-06-01T04:13:49.832Z,79.52
2019-06-01T04:16:15.920Z,78.98
2019-06-01T04:18:42.153Z,78.75
2019-06-01T04:21:08.345Z,79.11
2019-06-01T04:23:36.381Z,79.35
2019-06-01T04:26:04.099Z,79.49
2019-06-01T04:28:30.312Z,79.30
2019-06-01T04:30:56.405Z,78.93
2019-06-01T04:33:22.648Z,79.16
2019-06-01T04:35:48.728Z,79.21
2019-06-01T04:38:14.850Z,78.67
2019-06-01T04:40:40.927Z,78.63
2019-06-01T04:43:07.921Z,78.80
2019-06-01T04:45:34.424Z,77.83
2019-06-01T04:48:00.602Z,77.42
2019-06-01T04:50:26.892Z,77.36
2019-06-01T04:52:53.056Z,77.03
2019-06-01T04:55:19.260Z,76.94
2019-06-01T04:57:45.376Z,76.77
2019-06-01T05:00:25.977Z,76.40
2019-06-01T05:02:40.352Z,75.34
2019-06-01T05:05:07.157Z,76.33
2019-06-01T05:07:33.410Z,77.21
2019-06-01T05:09:59.535Z,76.47
2019-06-01T05:12:25.795Z,76.93
2019-06-01T05:14:51.904Z,76.29
2019-06-01T05:17:17.987Z,75.02
2019-06-01T05:19:44.079Z,73.75
2019-06-01T05:22:10.507Z,74.25
2019-06-01T05:24:36.728Z,72.85
2019-06-01T05:27:02.920Z,72.86
2019-06-01T05:29:29.020Z,73.07
2019-06-01T05:31:56.305Z,72.55
2019-06-01T05:34:22.403Z,72.81
2019-06-01T05:36:48.668Z,72.57
2019-06-01T05:39:14.977Z,72.48
2019-06-01T05:41:41.271Z,72.34
2019-06-01T05:44:08.741Z,72.31
2019-06-01T05:46:36.107Z,71.52
2019-06-01T05:49:02.471Z,71.37
2019-06-01T05:51:28.571Z,71.59
2019-06-01T05:53:54.873Z,70.57
2019-06-01T05:56:21.079Z,71.00
2019-06-01T05:58:47.166Z,70.36
2019-06-01T06:01:14.700Z,70.42
2019-06-01T06:03:40.992Z,70.00
2019-06-01T06:06:07.052Z,69.88
2019-06-01T06:08:33.151Z,69.73
2019-06-01T06:10:59.334Z,69.00
2019-06-01T06:13:25.421Z,68.58
2019-06-01T06:15:51.603Z,68.81
2019-06-01T06:18:19.817Z,67.66
2019-06-01T06:20:46.153Z,67.64
2019-06-01T06:23:12.348Z,67.48
2019-06-01T06:25:41.032Z,68.11
2019-06-01T06:28:06.565Z,66.19
2019-06-01T06:30:32.840Z,66.41
2019-06-01T06:32:59.063Z,65.87
2019-06-01T06:35:25.264Z,67.69
2019-06-01T06:37:51.485Z,65.19
2019-06-01T06:40:18.145Z,66.13
2019-06-01T06:42:44.236Z,64.59
2019-06-01T06:45:10.935Z,64.93
2019-06-01T06:47:37.227Z,64.01
2019-06-01T06:50:05.157Z,64.24
2019-06-01T06:52:31.445Z,64.07
2019-06-01T06:54:57.647Z,62.76
2019-06-01T06:57:24.238Z,61.94
2019-06-01T06:59:50.429Z,62.58
2019-06-01T07:02:16.801Z,62.52
2019-06-01T07:04:43.046Z,62.66
2019-06-01T07:07:09.260Z,61.67
2019-06-01T07:09:35.482Z,60.03
2019-06-01T07:12:01.772Z,58.88
2019-06-01T07:14:28.018Z,58.19
2019-06-01T07:16:54.206Z,59.30
2019-06-01T07:19:21.475Z,59.65
2019-06-01T07:21:47.788Z,57.78
2019-06-01T07:24:14.881Z,57.86
2019-06-01T07:26:40.988Z,57.94
2019-06-01T07:29:08.080Z,57.25
2019-06-01T07:31:34.128Z,58.05
2019-06-01T07:34:00.358Z,58.04
2019-06-01T07:36:26.737Z,58.13
2019-06-01T07:38:52.965Z,56.94
2019-06-01T07:41:20.550Z,57.05
2019-06-01T07:43:46.789Z,57.28
2019-06-01T07:46:12.877Z,55.80
2019-06-01T07:48:38.952Z,55.73
2019-06-01T07:51:05.150Z,54.55
2019-06-01T07:53:31.581Z,54.53
2019-06-01T07:55:57.729Z,55.29
2019-06-01T07:58:24.662Z,53.85
2019-06-01T08:00:50.976Z,54.56
2019-06-01T08:03:17.077Z,54.31
2019-06-01T08:05:43.258Z,52.75
2019-06-01T08:08:09.460Z,53.28
2019-06-01T08:10:35.632Z,52.79
2019-06-01T08:13:01.820Z,53.02
2019-06-01T08:15:28.352Z,53.07
2019-06-01T08:17:54.841Z,52.87
2019-06-01T08:20:21.912Z,53.07
2019-06-01T08:22:48.238Z,52.85
2019-06-01T08:25:14.549Z,52.82
2019-06-01T08:27:41.145Z,53.30
2019-06-01T08:30:08.554Z,53.03
2019-06-01T08:32:34.763Z,52.83
2019-06-01T08:35:08.528Z,51.09
2019-06-01T08:37:29.424Z,52.91
2019-06-01T08:39:59.146Z,51.97
2019-06-01T08:42:25.257Z,50.45
2019-06-01T08:44:51.473Z,51.70
2019-06-01T08:47:17.641Z,52.49
2019-06-01T08:49:43.744Z,53.01
2019-06-01T08:52:09.917Z,52.87
2019-06-01T08:54:36.136Z,52.09
2019-06-01T08:57:02.514Z,52.48
2019-06-01T08:59:28.745Z,52.15
2019-06-01T09:01:54.973Z,51.87
2019-06-01T09:04:21.146Z,52.75
2019-06-01T09:06:47.283Z,53.53
2019-06-01T09:09:13.482Z,52.43
2019-06-01T09:11:39.798Z,51.94
2019-06-01T09:14:06.019Z,50.45
2019-06-01T09:16:33.494Z,51.04
2019-06-01T09:18:59.746Z,50.41
2019-06-01T09:21:25.944Z,51.04
2019-06-01T09:23:52.217Z,50.43
2019-06-01T09:26:18.550Z,49.29
2019-06-01T09:28:44.744Z,50.20
2019-06-01T09:31:10.958Z,51.31
2019-06-01T09:33:37.189Z,51.71
2019-06-01T09:36:03.491Z,50.84
2019-06-01T09:38:29.750Z,49.44
2019-06-01T09:40:55.917Z,49.92
2019-06-01T09:43:22.068Z,48.59
2019-06-01T09:45:52.809Z,50.15
2019-06-01T09:48:16.369Z,49.38
2019-06-01T09:50:42.651Z,50.62
2019-06-01T09:53:08.977Z,49.59
2019-06-01T09:55:36.341Z,47.71
2019-06-01T09:58:03.196Z,49.09
2019-06-01T10:00:30.321Z,50.02
2019-06-01T10:02:56.792Z,50.01
2019-06-01T10:05:23.189Z,49.98
2019-06-01T10:07:49.311Z,49.30
2019-06-01T10:10:16.145Z,49.42
2019-06-01T10:12:42.371Z,49.49
2019-06-01T10:15:09.349Z,48.83
2019-06-01T10:17:37.089Z,46.85
2019-06-01T10:20:04.825Z,48.28
2019-06-01T10:22:31.065Z,48.36
2019-06-01T10:24:57.247Z,47.39
2019-06-01T10:27:24.553Z,47.66
2019-06-01T10:29:50.674Z,47.66
2019-06-01T10:32:16.757Z,47.89
2019-06-01T10:34:42.918Z,49.66
2019-06-01T10:37:09.083Z,49.55
2019-06-01T10:39:35.331Z,49.26
2019-06-01T10:42:01.477Z,49.40
2019-06-01T10:44:27.663Z,48.48
2019-06-01T10:46:53.837Z,48.14
2019-06-01T10:49:19.896Z,48.09
2019-06-01T10:51:45.992Z,47.85
2019-06-01T10:54:12.060Z,46.14
2019-06-01T10:56:38.549Z,48.38
2019-06-01T10:59:05.073Z,47.78
2019-06-01T11:01:32.924Z,45.73
2019-06-01T11:03:59.312Z,47.13
2019-06-01T11:06:36.725Z,47.27
2019-06-01T11:08:53.752Z,46.42
2019-06-01T11:11:19.996Z,47.99
2019-06-01T11:13:46.408Z,45.61
2019-06-01T11:16:12.621Z,45.94
2019-06-01T11:18:39.645Z,47.12
2019-06-01T11:21:05.920Z,47.12
2019-06-01T11:23:33.252Z,45.46
2019-06-01T11:25:59.588Z,45.89
2019-06-01T11:28:26.093Z,46.25
2019-06-01T11:30:52.467Z,45.47
2019-06-01T11:33:18.872Z,45.62
2019-06-01T11:35:45.435Z,43.72
2019-06-01T11:38:11.852Z,42.57
2019-06-01T11:40:38.602Z,42.36
2019-06-01T11:43:05.114Z,43.38
2019-06-01T11:45:31.411Z,43.21
2019-06-01T11:47:57.610Z,42.25
2019-06-01T11:50:23.769Z,41.36
2019-06-01T11:52:49.892Z,42.20
2019-06-01T11:55:16.302Z,45.08
2019-06-01T11:57:43.492Z,43.34
2019-06-01T12:00:12.046Z,42.25
2019-06-01T12:02:39.394Z,42.78
2019-06-01T12:05:07.675Z,40.59
2019-06-01T12:07:33.881Z,40.79
2019-06-01T12:10:00.200Z,41.17
2019-06-01T12:12:26.344Z,42.54
2019-06-01T12:14:52.569Z,44.23
2019-06-01T12:17:18.776Z,40.92
2019-06-01T12:19:44.884Z,39.19
2019-06-01T12:22:11.003Z,40.57
2019-06-01T12:24:37.204Z,39.27
2019-06-01T12:27:03.811Z,42.60
2019-06-01T12:29:30.865Z,43.10
2019-06-01T12:31:58.040Z,43.22
2019-06-01T12:34:24.398Z,43.69
2019-06-01T12:36:51.787Z,43.08
2019-06-01T12:39:17.877Z,40.17
2019-06-01T12:41:45.534Z,39.75
2019-06-01T12:44:13.018Z,38.92
2019-06-01T12:46:40.258Z,41.93
2019-06-01T12:49:06.792Z,41.67
2019-06-01T12:51:33.418Z,39.46
2019-06-01T12:53:59.644Z,41.56
2019-06-01T12:56:25.959Z,39.83
2019-06-01T12:58:52.283Z,39.59
2019-06-01T13:01:18.539Z,38.55
2019-06-01T13:03:45.260Z,41.26
2019-06-01T13:06:11.434Z,42.02
2019-06-01T13:08:38.732Z,40.54
2019-06-01T13:11:04.941Z,39.11
2019-06-01T13:13:31.029Z,38.79
2019-06-01T13:15:57.371Z,38.76
2019-06-01T13:18:23.597Z,39.70
2019-06-01T13:20:49.678Z,39.97
2019-06-01T13:23:15.864Z,37.65
2019-06-01T13:25:42.049Z,37.52
2019-06-01T13:28:08.284Z,39.10
2019-06-01T13:30:34.376Z,39.28
2019-06-01T13:33:00.515Z,36.85
2019-06-01T13:35:26.679Z,36.45
2019-06-01T13:38:10.755Z,38.34
2019-06-01T13:40:21.044Z,38.06
2019-06-01T13:42:49.115Z,39.78
2019-06-01T13:45:15.547Z,41.05
2019-06-01T13:47:41.798Z,40.32
2019-06-01T13:50:08.319Z,40.73
2019-06-01T13:52:34.613Z,39.02
2019-06-01T13:55:00.840Z,39.14
2019-06-01T13:57:26.922Z,38.13
2019-06-01T13:59:53.043Z,37.57
2019-06-01T14:02:19.364Z,37.80
2019-06-01T14:04:45.532Z,38.44
2019-06-01T14:07:11.646Z,39.18
2019-06-01T14:09:37.981Z,39.37
2019-06-01T14:12:04.284Z,39.39
2019-06-01T14:14:30.508Z,40.44
2019-06-01T14:16:56.647Z,39.09
2019-06-01T14:19:23.011Z,41.31
2019-06-01T14:21:50.439Z,40.64
2019-06-01T14:24:17.011Z,39.14
2019-06-01T14:26:44.226Z,39.22
2019-06-01T14:29:10.418Z,39.50
2019-06-01T14:31:36.519Z,40.46
2019-06-01T14:34:03.153Z,40.33
2019-06-01T14:36:29.556Z,39.66
2019-06-01T14:38:58.270Z,40.83
2019-06-01T14:41:23.899Z,41.05
2019-06-01T14:43:51.154Z,40.81
2019-06-01T14:46:17.472Z,41.38
2019-06-01T14:48:43.702Z,40.77
2019-06-01T14:51:09.942Z,40.84
2019-06-01T14:53:36.161Z,40.25
2019-06-01T14:56:02.909Z,40.10
2019-06-01T14:58:29.119Z,38.85
2019-06-01T15:00:56.575Z,39.74
2019-06-01T15:03:22.888Z,39.95
2019-06-01T15:05:50.264Z,40.58
2019-06-01T15:08:16.532Z,41.53
2019-06-01T15:10:42.644Z,40.98
2019-06-01T15:13:08.783Z,40.23
2019-06-01T15:15:35.093Z,39.77
2019-06-01T15:18:04.815Z,40.63
2019-06-01T15:20:29.221Z,39.61
2019-06-01T15:22:56.348Z,39.23
2019-06-01T15:25:22.532Z,39.43
2019-06-01T15:27:48.733Z,39.74
2019-06-01T15:30:15.041Z,40.43
2019-06-01T15:32:41.266Z,41.27
2019-06-01T15:35:09.056Z,39.03
2019-06-01T15:37:35.261Z,39.63
2019-06-01T15:40:03.984Z,40.62
2019-06-01T15:42:31.274Z,39.84
2019-06-01T15:44:57.415Z,40.46
2019-06-01T15:47:23.596Z,39.74
2019-06-01T15:49:49.687Z,39.58
2019-06-01T15:52:16.020Z,40.95
2019-06-01T15:54:42.101Z,41.39
2019-06-01T15:57:08.205Z,40.11
2019-06-01T15:59:34.397Z,40.46
2019-06-01T16:02:01.746Z,40.64
2019-06-01T16:04:28.007Z,41.57
2019-06-01T16:06:55.015Z,40.68
2019-06-01T16:09:21.204Z,40.66
2019-06-01T16:11:47.406Z,41.97
2019-06-01T16:14:13.621Z,41.95
2019-06-01T16:16:39.892Z,39.46
2019-06-01T16:19:07.940Z,39.61
2019-06-01T16:21:34.014Z,40.18
2019-06-01T16:24:00.426Z,39.69
2019-06-01T16:26:26.531Z,40.01
2019-06-01T16:28:52.643Z,40.92
2019-06-01T16:31:18.760Z,40.43
2019-06-01T16:33:44.851Z,39.37
2019-06-01T16:36:10.960Z,40.14
2019-06-01T16:38:37.167Z,39.45
2019-06-01T16:41:03.519Z,39.82
2019-06-01T16:43:29.584Z,40.30
2019-06-01T16:45:55.805Z,41.32
2019-06-01T16:48:24.046Z,38.75
2019-06-01T16:50:50.376Z,40.65
2019-06-01T16:53:16.622Z,39.81
2019-06-01T16:55:42.944Z,40.23
2019-06-01T16:58:09.177Z,40.20
2019-06-01T17:00:35.784Z,40.11
2019-06-01T17:03:02.757Z,40.67
2019-06-01T17:05:28.878Z,40.87
2019-06-01T17:07:55.017Z,39.96
2019-06-01T17:10:26.122Z,39.98
2019-06-01T17:12:49.500Z,40.00
2019-06-01T17:15:16.618Z,40.52
2019-06-01T17:17:42.696Z,41.14
2019-06-01T17:20:38.459Z,41.32
2019-06-01T17:23:22.884Z,41.20
2019-06-01T17:25:33.948Z,41.11
2019-06-01T17:28:00.241Z,41.92
2019-06-01T17:30:28.909Z,42.79
2019-06-01T17:32:56.732Z,41.90
2019-06-01T17:35:23.257Z,41.71
2019-06-01T17:37:49.887Z,42.25
2019-06-01T17:40:16.442Z,42.69
2019-06-01T17:42:42.827Z,42.06
2019-06-01T17:45:09.678Z,42.19
2019-06-01T17:47:35.944Z,41.17
2019-06-01T17:50:05.452Z,41.03
2019-06-01T17:52:31.876Z,40.93
2019-06-01T17:54:58.122Z,42.06
2019-06-01T17:57:24.446Z,42.36
2019-06-01T17:59:50.755Z,40.81
2019-06-01T18:02:17.188Z,41.28
2019-06-01T18:04:43.431Z,42.09
2019-06-01T18:07:10.054Z,40.87
2019-06-01T18:09:36.346Z,40.94
2019-06-01T18:12:03.901Z,40.99
2019-06-01T18:14:30.270Z,41.53
2019-06-01T18:16:56.524Z,42.33
2019-06-01T18:19:22.946Z,42.62
2019-06-01T18:21:49.378Z,42.53
2019-06-01T18:24:16.668Z,42.22
2019-06-01T18:26:43.031Z,42.56
2019-06-01T18:29:09.341Z,43.07
2019-06-01T18:31:35.573Z,43.94
2019-06-01T18:34:03.059Z,44.06
2019-06-01T18:36:29.612Z,44.78
2019-06-01T18:38:55.885Z,45.11
2019-06-01T18:41:22.160Z,45.79
2019-06-01T18:43:48.574Z,46.98
2019-06-01T18:46:14.983Z,47.24
2019-06-01T18:48:41.489Z,46.33
2019-06-01T18:51:10.126Z,46.03
2019-06-01T18:53:36.698Z,48.00
2019-06-01T18:56:04.120Z,46.29
2019-06-01T18:58:30.612Z,45.73
2019-06-01T19:00:57.003Z,50.89
2019-06-01T19:03:23.182Z,50.53
2019-06-01T19:05:49.556Z,52.66
2019-06-01T19:08:16.272Z,50.22
2019-06-01T19:10:43.291Z,48.61
2019-06-01T19:13:09.990Z,50.24
2019-06-01T19:15:36.346Z,54.57
2019-06-01T19:18:03.026Z,54.05
2019-06-01T19:20:32.967Z,56.17
2019-06-01T19:22:57.311Z,55.93
2019-06-01T19:25:23.693Z,53.23
2019-06-01T19:27:49.941Z,52.10
2019-06-01T19:30:34.173Z,53.28
2019-06-01T19:33:00.584Z,55.98
2019-06-01T19:35:27.538Z,55.80
2019-06-01T19:37:54.085Z,53.09
2019-06-01T19:40:24.098Z,53.12
2019-06-01T19:42:50.532Z,53.88
2019-06-01T19:45:27.497Z,52.73
2019-06-01T19:47:45.435Z,53.19
2019-06-01T19:50:12.174Z,53.10
2019-06-01T19:52:38.750Z,52.88
2019-06-01T19:55:05.184Z,57.14
2019-06-01T19:57:31.338Z,54.97
2019-06-01T19:59:57.659Z,59.64
2019-06-01T20:02:33.266Z,62.29
2019-06-01T20:04:52.137Z,60.90
2019-06-01T20:07:19.275Z,62.64
2019-06-01T20:09:45.555Z,61.96
2019-06-01T20:12:14.875Z,60.94
2019-06-01T20:14:39.899Z,61.18
2019-06-01T20:17:06.012Z,64.59
2019-06-01T20:19:32.268Z,64.31
2019-06-01T20:21:58.312Z,65.58
2019-06-01T20:24:24.568Z,65.39
2019-06-01T20:26:51.373Z,62.94
2019-06-01T20:29:18.217Z,64.83
2019-06-01T20:31:44.443Z,64.71
2019-06-01T20:34:12.771Z,62.30
2019-06-01T20:36:38.810Z,63.90
2019-06-01T20:39:06.482Z,64.22
2019-06-01T20:41:32.743Z,64.63
2019-06-01T20:43:58.987Z,65.05
2019-06-01T20:46:25.065Z,63.62
2019-06-01T20:48:52.354Z,64.98
2019-06-01T20:51:18.833Z,67.13
2019-06-01T20:53:45.063Z,68.11
2019-06-01T20:56:11.154Z,67.69
2019-06-01T20:58:38.468Z,66.52
2019-06-01T21:01:04.841Z,67.44
2019-06-01T21:03:31.153Z,66.58
2019-06-01T21:05:57.341Z,67.08
2019-06-01T21:08:24.186Z,66.11
2019-06-01T21:13:31.189Z,68.09
2019-06-01T21:15:57.445Z,68.95
2019-06-01T21:18:25.044Z,69.15
2019-06-01T21:20:51.472Z,68.09
2019-06-01T21:23:18.676Z,66.41
2019-06-01T21:25:44.795Z,66.47
2019-06-01T21:28:14.178Z,66.11
2019-06-01T21:30:39.584Z,68.18
2019-06-01T21:33:05.690Z,68.76
2019-06-01T21:35:31.809Z,68.57
2019-06-01T21:37:58.005Z,67.83
2019-06-01T21:40:25.652Z,67.35
2019-06-01T21:43:03.197Z,68.13
2019-06-01T21:45:20.135Z,68.69
2019-06-01T21:47:46.373Z,68.78
2019-06-01T21:50:16.610Z,68.83
2019-06-01T21:52:44.525Z,68.49
2019-06-01T21:55:11.327Z,70.26
2019-06-01T21:57:37.416Z,70.76
2019-06-01T22:00:12.905Z,71.21
2019-06-01T22:02:40.962Z,70.71
2019-06-01T22:05:07.954Z,71.03
2019-06-01T22:07:35.262Z,71.46
2019-06-01T22:10:01.519Z,72.67
2019-06-01T22:12:27.869Z,72.11
2019-06-01T22:14:54.038Z,71.67
2019-06-01T22:17:21.501Z,71.03
2019-06-01T22:19:48.010Z,70.54
2019-06-01T22:22:14.099Z,68.78
2019-06-01T22:24:40.381Z,67.58
2019-06-01T22:27:06.456Z,67.75
2019-06-01T22:29:32.943Z,67.27
2019-06-01T22:32:00.247Z,68.26
2019-06-01T22:34:26.983Z,68.71
2019-06-01T22:36:53.315Z,69.30
2019-06-01T22:39:20.911Z,68.00
2019-06-01T22:41:48.256Z,68.39
2019-06-01T22:44:14.300Z,68.94
2019-06-01T22:46:40.385Z,69.41
2019-06-01T22:49:06.786Z,69.66
2019-06-01T22:51:33.987Z,67.99
2019-06-01T22:54:00.100Z,68.42
2019-06-01T22:56:27.326Z,67.20
2019-06-01T22:58:53.509Z,69.43
2019-06-01T23:01:20.916Z,67.88
2019-06-01T23:03:47.179Z,66.69
2019-06-01T23:06:13.404Z,67.14
2019-06-01T23:08:39.495Z,65.97
2019-06-01T23:11:05.691Z,67.14
2019-06-01T23:13:32.417Z,68.76
2019-06-01T23:15:58.771Z,68.73
2019-06-01T23:18:25.644Z,69.79
2019-06-01T23:20:51.785Z,69.90
2019-06-01T23:23:17.880Z,68.51
2019-06-01T23:25:44.162Z,67.20
2019-06-01T23:28:10.393Z,67.97
2019-06-01T23:30:36.418Z,68.00
2019-06-01T23:33:02.701Z,69.10
2019-06-01T23:35:28.794Z,69.88
2019-06-01T23:37:54.879Z,68.22
2019-06-01T23:40:22.380Z,68.87
2019-06-01T23:42:48.596Z,69.25
2019-06-01T23:45:15.529Z,69.24
2019-06-01T23:47:41.648Z,69.52
2019-06-01T23:50:07.907Z,69.95
2019-06-01T23:52:34.066Z,69.92
2019-06-01T23:55:00.156Z,69.27
2019-06-01T23:57:26.219Z,69.61
2019-06-01T23:59:52.405Z,69.50
